Terminal Aerodrome Forecast
Issued by NWS Wilmington, OH

Current Version | Previous Version | Text Only | Print | Product List | Glossary Off
Versions: 1 2 3 4 5 6 7 8 9 10 11 12 13 14 15 16 17 18 19 20 21

000
FTUS41 KILN 240500 RRA
TAFCVG
TAF
KCVG 240544Z 2406/2512 15007KT P6SM SCT018 OVC070
      TEMPO 2406/2408 BKN018 OVC070
     FM241200 12008KT 4SM -SHRA BR OVC015
     FM241600 16010KT 5SM BR VCSH BKN007 OVC012
     FM241900 21014G22KT P6SM -SHRA OVC015
     FM242200 23022G36KT P6SM OVC018
     FM250200 24016G26KT P6SM OVC018
     FM250800 25012G20KT P6SM OVC022=

USA.gov is the U.S. government's official web portal to all federal, state and local government web resources and services.